X  Stänga Metar väderdata för luftfart     EDDL Düsseldorf Airport
Temperatur
10°C Temperatur
6°C Daggpunkt
76% Fuktighet



Vind
23 KM/T
14 MPH
6 M/S
12 KTS



220°
SV
Nuvarande omständigheter

Delvis molnigt Delvis molnigt
Tryck 1026.75 (hPa) - 30.32 (inHg)
Synlighet 6 (mil) - 9.7 (km)
Flygplats
Flygplatskod EDDL

Plats: Düsseldorf Airport
Distans: 30 (km)

Metar:
EDDL 201250Z AUTO 22012KT 9999 FEW017 10/06 Q1027 NOSIG

Tid: 20-02-2024 12:50 CET